createdAt,value
2019-03-19T00:01:53.946Z,10.60
2019-03-19T00:04:24.006Z,9.77
2019-03-19T00:06:53.880Z,8.87
2019-03-19T00:09:23.381Z,9.30
2019-03-19T00:11:52.906Z,8.00
2019-03-19T00:14:23.004Z,11.03
2019-03-19T00:16:52.664Z,8.97
2019-03-19T00:19:22.839Z,10.00
2019-03-19T00:21:52.606Z,9.60
2019-03-19T00:24:23.481Z,10.60
2019-03-19T00:29:29.042Z,11.40
2019-03-19T00:31:59.543Z,10.10
2019-03-19T00:34:29.578Z,10.30
2019-03-19T00:36:59.484Z,10.93
2019-03-19T00:39:29.968Z,13.70
2019-03-19T00:42:01.285Z,12.33
2019-03-19T00:44:31.451Z,8.87
2019-03-19T00:47:01.380Z,9.20
2019-03-19T00:49:32.650Z,9.77
2019-03-19T00:52:03.055Z,10.40
2019-03-19T00:54:32.944Z,9.17
2019-03-19T00:57:03.001Z,10.40
2019-03-19T00:59:32.905Z,11.63
2019-03-19T01:02:03.041Z,9.67
2019-03-19T01:04:34.195Z,10.33
2019-03-19T01:07:04.194Z,10.77
2019-03-19T01:09:35.449Z,10.40
2019-03-19T01:12:06.439Z,10.33
2019-03-19T01:14:36.000Z,10.27
2019-03-19T01:17:05.880Z,9.73
2019-03-19T01:19:35.688Z,8.43
2019-03-19T01:22:05.439Z,9.80
2019-03-19T01:24:35.191Z,9.97
2019-03-19T01:27:04.922Z,9.23
2019-03-19T01:29:35.189Z,11.97
2019-03-19T01:32:08.204Z,12.13
2019-03-19T01:34:37.797Z,9.13
2019-03-19T01:37:07.766Z,10.17
2019-03-19T01:39:37.965Z,12.03
2019-03-19T01:42:08.056Z,11.43
2019-03-19T01:44:37.773Z,10.03
2019-03-19T01:47:07.940Z,9.27
2019-03-19T01:49:37.765Z,9.53
2019-03-19T01:52:07.593Z,10.30
2019-03-19T01:54:37.130Z,8.87
2019-03-19T01:57:06.493Z,9.77
2019-03-19T01:59:36.386Z,10.50
2019-03-19T02:02:06.664Z,13.10
2019-03-19T02:04:36.586Z,9.83
2019-03-19T02:07:06.277Z,9.97
2019-03-19T02:09:36.076Z,13.40
2019-03-19T02:12:06.448Z,12.27
2019-03-19T02:14:36.756Z,10.43
2019-03-19T02:17:06.869Z,9.60
2019-03-19T02:19:36.759Z,9.07
2019-03-19T02:22:07.535Z,12.13
2019-03-19T02:24:37.174Z,11.87
2019-03-19T02:27:06.975Z,12.10
2019-03-19T02:29:38.113Z,12.33
2019-03-19T02:32:08.298Z,12.90
2019-03-19T02:34:38.338Z,11.70
2019-03-19T02:37:08.150Z,13.13
2019-03-19T02:39:37.973Z,13.03
2019-03-19T02:42:07.771Z,11.67
2019-03-19T02:44:37.789Z,14.13
2019-03-19T02:47:07.664Z,12.80
2019-03-19T02:49:37.056Z,17.07
2019-03-19T02:52:06.907Z,13.23
2019-03-19T02:54:36.102Z,12.83
2019-03-19T02:57:06.234Z,10.83
2019-03-19T02:59:36.151Z,10.70
2019-03-19T03:02:05.798Z,10.10
2019-03-19T03:04:35.701Z,10.10
2019-03-19T03:07:05.888Z,11.13
2019-03-19T03:09:38.899Z,10.00
2019-03-19T03:12:08.661Z,10.23
2019-03-19T03:14:38.641Z,8.43
2019-03-19T03:17:08.083Z,10.70
2019-03-19T03:19:37.927Z,9.83
2019-03-19T03:22:07.674Z,11.30
2019-03-19T03:24:37.650Z,10.20
2019-03-19T03:27:08.425Z,9.77
2019-03-19T03:29:38.809Z,10.63
2019-03-19T03:32:08.552Z,10.23
2019-03-19T03:34:39.030Z,12.93
2019-03-19T03:37:08.624Z,13.77
2019-03-19T03:39:38.226Z,10.53
2019-03-19T03:42:07.934Z,11.40
2019-03-19T03:44:37.727Z,10.90
2019-03-19T03:47:07.334Z,13.17
2019-03-19T03:49:36.957Z,10.80
2019-03-19T03:52:06.605Z,14.03
2019-03-19T03:54:36.260Z,12.90
2019-03-19T03:57:09.040Z,11.23
2019-03-19T03:59:38.990Z,10.87
2019-03-19T04:02:08.599Z,10.80
2019-03-19T04:04:38.267Z,12.43
2019-03-19T04:07:08.432Z,10.87
2019-03-19T04:09:37.921Z,12.43
2019-03-19T04:12:07.704Z,15.00
2019-03-19T04:14:37.569Z,12.43
2019-03-19T04:17:07.080Z,12.87
2019-03-19T04:19:36.804Z,11.80
2019-03-19T04:22:06.556Z,13.27
2019-03-19T04:24:36.182Z,12.30
2019-03-19T04:27:15.249Z,15.83
2019-03-19T04:29:38.150Z,19.40
2019-03-19T04:32:07.791Z,27.77
2019-03-19T04:34:37.667Z,25.50
2019-03-19T04:37:07.205Z,20.73
2019-03-19T04:39:37.146Z,17.67
2019-03-19T04:42:06.535Z,14.83
2019-03-19T04:44:36.328Z,13.40
2019-03-19T04:47:05.497Z,10.70
2019-03-19T04:49:34.779Z,9.80
2019-03-19T04:52:04.421Z,12.10
2019-03-19T04:54:34.060Z,13.07
2019-03-19T04:57:03.784Z,10.57
2019-03-19T04:59:33.736Z,14.93
2019-03-19T05:02:05.567Z,13.90
2019-03-19T05:04:35.638Z,12.03
2019-03-19T05:07:06.010Z,10.50
2019-03-19T05:09:36.019Z,12.10
2019-03-19T05:12:06.790Z,16.37
2019-03-19T05:14:36.826Z,11.50
2019-03-19T05:17:06.436Z,13.23
2019-03-19T05:19:36.856Z,10.43
2019-03-19T05:22:06.334Z,17.50
2019-03-19T05:24:36.055Z,10.33
2019-03-19T05:27:06.379Z,15.90
2019-03-19T05:33:04.909Z,14.83
2019-03-19T05:35:35.956Z,14.10
2019-03-19T05:38:05.593Z,10.20
2019-03-19T05:40:35.935Z,13.40
2019-03-19T05:43:05.775Z,12.17
2019-03-19T05:45:35.706Z,13.57
2019-03-19T05:48:05.424Z,16.07
2019-03-19T05:50:39.521Z,11.53
2019-03-19T05:53:09.703Z,11.70
2019-03-19T05:55:40.058Z,12.10
2019-03-19T05:58:10.419Z,19.90
2019-03-19T06:00:43.623Z,14.53
2019-03-19T06:03:15.964Z,13.60
2019-03-19T06:05:45.935Z,11.50
2019-03-19T06:08:15.835Z,18.57
2019-03-19T06:10:45.769Z,16.83
2019-03-19T06:13:19.223Z,44.50
2019-03-19T06:15:49.299Z,23.27
2019-03-19T06:18:19.378Z,15.70
2019-03-19T06:20:49.341Z,13.00
2019-03-19T06:23:19.560Z,14.60
2019-03-19T06:25:56.072Z,13.47
2019-03-19T06:28:25.879Z,19.90
2019-03-19T06:30:55.922Z,20.50
2019-03-19T06:33:26.119Z,28.83
2019-03-19T06:35:56.151Z,17.33
2019-03-19T06:38:26.013Z,19.00
2019-03-19T06:40:55.755Z,13.27
2019-03-19T06:43:25.796Z,20.27
2019-03-19T06:45:55.672Z,15.33
2019-03-19T06:48:25.534Z,19.67
2019-03-19T06:50:55.093Z,19.73
2019-03-19T06:53:24.800Z,20.00
2019-03-19T06:55:54.555Z,20.63
2019-03-19T06:58:24.365Z,21.40
2019-03-19T07:00:53.825Z,20.87
2019-03-19T07:03:23.437Z,18.00
2019-03-19T07:05:52.948Z,18.40
2019-03-19T07:08:22.649Z,22.50
2019-03-19T07:10:52.441Z,15.60
2019-03-19T07:13:22.178Z,14.87
2019-03-19T07:15:51.987Z,16.07
2019-03-19T07:18:21.628Z,22.03
2019-03-19T07:20:51.399Z,16.10
2019-03-19T07:23:21.449Z,21.37
2019-03-19T07:25:51.038Z,20.77
2019-03-19T07:28:22.378Z,19.70
2019-03-19T07:30:52.535Z,17.53
2019-03-19T07:33:23.289Z,15.63
2019-03-19T07:35:54.878Z,12.40
2019-03-19T07:38:24.693Z,13.20
2019-03-19T07:40:54.580Z,18.00
2019-03-19T07:43:24.643Z,18.10
2019-03-19T07:45:54.521Z,12.30
2019-03-19T07:48:24.468Z,15.87
2019-03-19T07:50:54.024Z,12.57
2019-03-19T07:53:24.276Z,11.50
2019-03-19T07:55:55.642Z,11.67
2019-03-19T07:58:35.712Z,11.40
2019-03-19T08:00:58.575Z,16.00
2019-03-19T08:26:31.721Z,16.73
2019-03-19T09:21:25.704Z,14.73
2019-03-19T09:24:06.696Z,18.83
2019-03-19T09:26:47.883Z,12.97
2019-03-19T09:29:21.026Z,10.83
2019-03-19T09:31:58.350Z,14.53
2019-03-19T09:34:37.736Z,13.00
2019-03-19T09:38:02.463Z,14.43
2019-03-19T09:43:11.687Z,13.43
2019-03-19T09:45:44.912Z,13.27
2019-03-19T09:53:47.561Z,12.47
2019-03-19T09:56:23.134Z,15.03
2019-03-19T09:58:53.761Z,12.80
2019-03-19T10:01:24.751Z,11.87
2019-03-19T10:03:58.693Z,10.87
2019-03-19T10:06:29.097Z,11.93
2019-03-19T10:09:03.421Z,12.60
2019-03-19T10:11:53.319Z,10.03
2019-03-19T10:14:23.378Z,10.23
2019-03-19T10:16:53.364Z,11.67
2019-03-19T10:19:23.840Z,14.10
2019-03-19T10:21:53.611Z,10.77
2019-03-19T10:24:26.450Z,9.73
2019-03-19T10:26:59.332Z,11.60
2019-03-19T10:29:37.827Z,11.03
2019-03-19T10:32:01.464Z,11.50
2019-03-19T10:37:09.901Z,11.30
2019-03-19T10:39:39.493Z,10.20
2019-03-19T10:42:09.007Z,11.93
2019-03-19T10:44:38.940Z,11.30
2019-03-19T10:47:08.767Z,10.07
2019-03-19T10:49:38.282Z,8.53
2019-03-19T10:52:07.714Z,7.90
2019-03-19T10:54:37.485Z,12.43
2019-03-19T10:57:07.117Z,10.20
2019-03-19T10:59:36.882Z,8.70
2019-03-19T11:02:07.293Z,10.67
2019-03-19T11:04:37.439Z,7.60
2019-03-19T11:07:07.423Z,9.87
2019-03-19T11:09:37.309Z,9.93
2019-03-19T11:12:06.937Z,9.67
2019-03-19T11:14:36.798Z,10.33
2019-03-19T11:17:07.066Z,11.17
2019-03-19T11:19:37.281Z,8.83
2019-03-19T11:22:07.615Z,11.87
2019-03-19T11:24:44.981Z,8.27
2019-03-19T11:27:14.992Z,10.90
2019-03-19T11:29:46.887Z,10.73
2019-03-19T11:32:17.596Z,8.80
2019-03-19T11:34:47.633Z,10.40
2019-03-19T11:37:19.027Z,9.47
2019-03-19T11:39:49.879Z,12.23
2019-03-19T11:42:20.042Z,9.93
2019-03-19T11:44:50.362Z,8.47
2019-03-19T11:47:20.132Z,9.80
2019-03-19T11:49:49.914Z,9.10
2019-03-19T11:52:25.049Z,8.80
2019-03-19T11:54:54.335Z,8.13
2019-03-19T11:57:24.066Z,9.90
2019-03-19T11:59:53.866Z,9.60
2019-03-19T12:02:26.174Z,10.47
2019-03-19T12:04:55.519Z,9.20
2019-03-19T12:07:25.887Z,12.87
2019-03-19T12:10:01.384Z,9.57
2019-03-19T12:12:31.441Z,12.13
2019-03-19T12:15:02.007Z,10.83
2019-03-19T12:17:32.529Z,9.00
2019-03-19T12:20:02.844Z,10.30
2019-03-19T12:22:33.270Z,9.10
2019-03-19T12:25:03.215Z,9.83
2019-03-19T12:27:33.395Z,8.27
2019-03-19T12:30:03.562Z,9.50
2019-03-19T12:32:34.066Z,9.63
2019-03-19T12:35:10.554Z,8.77
2019-03-19T12:37:40.307Z,9.10
2019-03-19T12:40:11.776Z,10.00
2019-03-19T12:42:46.818Z,10.10
2019-03-19T12:45:17.206Z,8.73
2019-03-19T12:47:47.279Z,10.63
2019-03-19T12:50:21.336Z,7.67
2019-03-19T12:52:52.710Z,11.63
2019-03-19T12:55:22.507Z,8.53
2019-03-19T12:57:52.345Z,21.43
2019-03-19T13:00:33.343Z,8.63
2019-03-19T13:02:58.225Z,9.13
2019-03-19T13:05:27.791Z,8.50
2019-03-19T13:07:57.624Z,10.60
2019-03-19T13:10:27.996Z,8.53
2019-03-19T13:12:57.809Z,13.57
2019-03-19T13:15:27.839Z,12.60
2019-03-19T13:17:58.643Z,9.20
2019-03-19T13:20:28.778Z,10.83
2019-03-19T13:22:58.646Z,11.90
2019-03-19T13:25:28.726Z,11.97
2019-03-19T13:27:58.913Z,10.50
2019-03-19T13:30:28.659Z,9.23
2019-03-19T13:32:59.157Z,8.77
2019-03-19T13:35:28.746Z,10.53
2019-03-19T13:37:57.916Z,7.90
2019-03-19T13:40:27.490Z,10.60
2019-03-19T13:42:57.758Z,11.40
2019-03-19T13:45:27.350Z,12.03
2019-03-19T13:47:57.930Z,10.43
2019-03-19T13:50:27.767Z,11.53
2019-03-19T13:52:57.586Z,9.53
2019-03-19T13:55:27.280Z,10.80
2019-03-19T13:57:56.900Z,9.57
2019-03-19T14:00:26.928Z,9.13
2019-03-19T14:02:59.214Z,8.30
2019-03-19T14:05:31.327Z,11.17
2019-03-19T14:08:01.264Z,9.63
2019-03-19T14:10:30.986Z,8.13
2019-03-19T14:13:00.666Z,12.97
2019-03-19T14:15:31.465Z,9.90
2019-03-19T14:18:03.571Z,15.30
2019-03-19T14:21:20.234Z,13.07
2019-03-19T14:23:49.952Z,9.55
2019-03-19T14:26:20.046Z,10.60
2019-03-19T14:28:51.485Z,9.70
2019-03-19T14:31:21.862Z,10.13
2019-03-19T14:34:50.094Z,11.43
2019-03-19T14:45:50.213Z,8.33
2019-03-19T14:48:22.803Z,12.37
2019-03-19T14:50:56.446Z,10.27
2019-03-19T14:53:26.495Z,10.10
2019-03-19T14:56:05.132Z,11.30
2019-03-19T14:58:38.754Z,9.27
2019-03-19T15:01:31.156Z,11.23
2019-03-19T15:03:41.576Z,12.90
2019-03-19T15:06:12.882Z,12.70
2019-03-19T15:08:43.437Z,10.43
2019-03-19T15:11:13.197Z,9.27
2019-03-19T15:16:19.451Z,9.97
2019-03-19T16:15:48.154Z,12.07
2019-03-19T16:18:25.436Z,7.87
2019-03-19T16:20:57.527Z,8.73
2019-03-19T16:23:27.809Z,8.60
2019-03-19T16:25:58.775Z,11.65
2019-03-19T16:28:32.487Z,10.90
2019-03-19T16:56:14.719Z,7.47
2019-03-19T16:58:48.535Z,7.37
2019-03-19T17:01:22.866Z,10.83
2019-03-19T17:04:02.415Z,12.97
2019-03-19T17:09:09.371Z,9.17
2019-03-19T17:11:39.459Z,13.97
2019-03-19T17:14:12.703Z,11.40
2019-03-19T17:16:43.416Z,13.27
2019-03-19T17:19:13.960Z,14.37
2019-03-19T17:21:44.399Z,19.83
2019-03-19T17:24:16.276Z,11.30
2019-03-19T17:26:46.533Z,12.53
2019-03-19T17:29:16.663Z,11.57
2019-03-19T17:31:46.346Z,15.83
2019-03-19T17:34:19.302Z,12.17
2019-03-19T17:36:48.918Z,10.00
2019-03-19T17:39:19.459Z,12.23
2019-03-19T17:41:49.385Z,12.67
2019-03-19T17:44:20.114Z,14.10
2019-03-19T17:46:49.739Z,13.20
2019-03-19T17:52:49.960Z,10.63
2019-03-19T17:55:19.898Z,11.07
2019-03-19T17:57:49.716Z,9.07
2019-03-19T18:00:24.648Z,14.07
2019-03-19T18:02:54.706Z,11.80
2019-03-19T18:05:24.918Z,10.40
2019-03-19T18:07:54.842Z,9.80
2019-03-19T18:10:24.580Z,9.03
2019-03-19T18:13:06.493Z,16.20
2019-03-19T18:16:07.637Z,15.30
2019-03-19T18:18:39.117Z,15.70
2019-03-19T18:21:08.903Z,15.00
2019-03-19T18:23:39.157Z,9.70
2019-03-19T18:26:21.594Z,12.97
2019-03-19T18:35:09.659Z,12.53
2019-03-19T18:37:44.551Z,10.50
2019-03-19T18:40:15.239Z,8.50
2019-03-19T18:42:57.673Z,11.20
2019-03-19T18:45:29.295Z,10.87
2019-03-19T18:47:59.300Z,13.57
2019-03-19T18:50:36.979Z,17.50
2019-03-19T18:53:07.568Z,13.03
2019-03-19T18:55:37.758Z,14.57
2019-03-19T18:58:07.945Z,9.73
2019-03-19T19:00:37.918Z,7.87
2019-03-19T19:03:07.883Z,8.63
2019-03-19T19:05:38.232Z,8.20
2019-03-19T19:10:57.283Z,16.60
2019-03-19T19:13:38.838Z,14.33
2019-03-19T19:16:30.629Z,18.50
2019-03-19T19:19:29.079Z,14.87
2019-03-19T19:21:59.931Z,12.90
2019-03-19T19:27:21.498Z,10.27
2019-03-19T19:29:56.376Z,14.77
2019-03-19T19:32:26.642Z,20.07
2019-03-19T19:34:59.254Z,10.47
2019-03-19T19:41:11.091Z,10.67
2019-03-19T19:43:57.097Z,14.67
2019-03-19T19:47:17.882Z,11.43
2019-03-19T19:49:52.826Z,10.30
2019-03-19T19:52:25.419Z,13.67
2019-03-19T19:54:55.278Z,13.63
2019-03-19T19:57:25.634Z,11.10
2019-03-19T19:59:55.790Z,11.90
2019-03-19T20:02:30.221Z,13.53
2019-03-19T20:07:45.970Z,12.30
2019-03-19T20:10:20.396Z,12.50
2019-03-19T20:13:31.182Z,10.70
2019-03-19T20:16:27.534Z,10.17
2019-03-19T20:22:39.930Z,14.43
2019-03-19T20:25:47.742Z,11.60
2019-03-19T20:29:29.136Z,16.00
2019-03-19T20:32:20.487Z,16.97
2019-03-19T20:35:28.886Z,19.07
2019-03-19T20:41:09.963Z,17.87
2019-03-19T20:43:43.814Z,19.83
2019-03-19T20:46:14.308Z,18.63
2019-03-19T20:48:45.248Z,21.90
2019-03-19T20:51:17.117Z,20.77
2019-03-19T20:53:48.321Z,21.57
2019-03-19T20:56:18.827Z,19.40
2019-03-19T20:58:49.359Z,18.87
2019-03-19T21:01:19.233Z,19.97
2019-03-19T21:03:49.275Z,22.03
2019-03-19T21:06:19.041Z,20.53
2019-03-19T21:08:49.077Z,20.23
2019-03-19T21:11:20.160Z,18.10
2019-03-19T21:13:50.383Z,17.60
2019-03-19T21:16:20.382Z,10.80
2019-03-19T21:18:50.314Z,13.63
2019-03-19T21:21:20.468Z,13.40
2019-03-19T21:23:50.175Z,10.40
2019-03-19T21:26:19.770Z,10.53
2019-03-19T21:28:49.407Z,11.43
2019-03-19T21:31:18.978Z,12.30
2019-03-19T21:33:51.527Z,13.93
2019-03-19T21:36:21.210Z,10.20
2019-03-19T21:38:51.064Z,11.17
2019-03-19T21:41:21.144Z,12.50
2019-03-19T21:43:52.020Z,10.07
2019-03-19T21:46:21.482Z,12.70
2019-03-19T21:48:51.259Z,10.13
2019-03-19T21:51:20.922Z,9.33
2019-03-19T21:53:51.453Z,14.63
2019-03-19T21:56:21.858Z,13.63
2019-03-19T21:58:52.291Z,9.90
2019-03-19T22:01:22.368Z,12.27
2019-03-19T22:04:02.652Z,9.30
2019-03-19T22:06:24.878Z,11.30
2019-03-19T22:08:55.107Z,9.83
2019-03-19T22:11:25.779Z,15.77
2019-03-19T22:13:55.575Z,15.93
2019-03-19T22:19:00.435Z,14.73
2019-03-19T22:21:30.935Z,20.20
2019-03-19T22:24:00.519Z,14.70
2019-03-19T22:26:30.554Z,15.60
2019-03-19T22:29:01.223Z,15.73
2019-03-19T22:31:33.169Z,19.37
2019-03-19T22:34:13.541Z,17.83
2019-03-19T22:36:38.506Z,15.23
2019-03-19T22:39:09.780Z,15.33
2019-03-19T22:41:43.381Z,12.27
2019-03-19T22:44:16.456Z,12.77
2019-03-19T22:46:50.873Z,11.67
2019-03-19T22:49:24.290Z,13.90
2019-03-19T22:51:54.853Z,12.47
2019-03-19T22:54:26.316Z,15.67
2019-03-19T22:56:56.472Z,10.70
2019-03-19T22:59:26.255Z,12.70
2019-03-19T23:01:56.009Z,12.87
2019-03-19T23:04:27.562Z,13.57
2019-03-19T23:06:57.465Z,13.30
2019-03-19T23:09:28.186Z,14.57
2019-03-19T23:12:02.750Z,16.33
2019-03-19T23:14:35.676Z,20.63
2019-03-19T23:17:06.248Z,13.23
2019-03-19T23:19:36.616Z,16.23
2019-03-19T23:22:15.699Z,13.63
2019-03-19T23:24:49.399Z,10.63
2019-03-19T23:27:25.245Z,14.73
2019-03-19T23:29:56.167Z,13.10
2019-03-19T23:32:27.640Z,11.60
2019-03-19T23:34:57.698Z,13.00
2019-03-19T23:37:30.056Z,13.80
2019-03-19T23:39:59.867Z,13.00
2019-03-19T23:42:29.544Z,13.20
2019-03-19T23:44:59.201Z,14.00
2019-03-19T23:47:30.053Z,13.67
2019-03-19T23:50:00.133Z,12.17
2019-03-19T23:52:32.867Z,13.07
2019-03-19T23:55:02.714Z,10.57
2019-03-19T23:57:43.110Z,11.30
